Time;durP1;ratioP1;P1;durP2;ratioP2;P2;SDS_P1;SDS_P2;PMS_P1;PMS_P2;Temp;Humidity;BMP_temperature;BMP_pressure;BME280_temperature;BME280_humidity;BME280_pressure;Samples;Min_cycle;Max_cycle;Signal;HPM_P1;HPM_P2
2021/08/01 00:00:09;;;;;;;8.55;4.90;;;;;;;;;;5018421;28;20076;-86
2021/08/01 00:02:34;;;;;;;5.78;4.00;;;;;;;;;;5027416;28;20203;-84
2021/08/01 00:05:00;;;;;;;8.32;4.55;;;;;;;;;;5026303;28;20137;-86
2021/08/01 00:07:25;;;;;;;8.23;4.07;;;;;;;;;;5019961;28;20026;-86
2021/08/01 00:09:56;;;;;;;10.48;4.90;;;;;;;;;;5017675;28;20475;-86
2021/08/01 00:12:21;;;;;;;8.85;4.70;;;;;;;;;;5033589;28;20452;-85
2021/08/01 00:14:46;;;;;;;7.03;4.50;;;;;;;;;;5027102;28;20046;-86
2021/08/01 00:17:12;;;;;;;9.43;4.45;;;;;;;;;;5021436;28;20013;-86
2021/08/01 00:19:37;;;;;;;8.23;4.10;;;;;;;;;;5026264;28;20041;-86
2021/08/01 00:22:02;;;;;;;7.57;4.50;;;;;;;;;;5019396;28;20029;-86
2021/08/01 00:24:27;;;;;;;10.30;4.00;;;;;;;;;;5025094;28;20109;-86
2021/08/01 00:26:53;;;;;;;6.32;4.05;;;;;;;;;;5019545;28;20030;-86
2021/08/01 00:29:18;;;;;;;7.40;4.55;;;;;;;;;;5019216;28;20022;-86
2021/08/01 00:31:43;;;;;;;8.25;4.43;;;;;;;;;;5021722;28;20017;-86
2021/08/01 00:34:08;;;;;;;6.07;4.20;;;;;;;;;;5020376;28;20114;-86
2021/08/01 00:36:33;;;;;;;7.72;3.88;;;;;;;;;;5028547;28;20492;-85
2021/08/01 00:38:59;;;;;;;5.13;3.45;;;;;;;;;;5028514;28;20301;-86
2021/08/01 00:41:24;;;;;;;8.43;3.92;;;;;;;;;;5021117;28;20061;-86
2021/08/01 00:43:49;;;;;;;6.32;4.00;;;;;;;;;;5018723;28;20032;-86
2021/08/01 00:46:16;;;;;;;8.20;3.78;;;;;;;;;;5022175;28;20109;-86
2021/08/01 00:48:41;;;;;;;6.45;3.70;;;;;;;;;;5015652;28;20033;-86
2021/08/01 00:51:06;;;;;;;7.05;3.70;;;;;;;;;;5021243;28;20017;-86
2021/08/01 00:53:32;;;;;;;11.98;4.50;;;;;;;;;;5021173;28;20014;-86
2021/08/01 00:55:57;;;;;;;5.88;3.85;;;;;;;;;;5021521;28;20044;-86
2021/08/01 00:58:22;;;;;;;6.90;3.63;;;;;;;;;;5016967;28;20536;-86
2021/08/01 01:03:55;;;;;;;7.40;3.85;;;;;;;;;;5011639;28;20429;-85
2021/08/01 01:06:39;;;;;;;8.52;4.20;;;;;;;;;;5020217;28;20072;-86
2021/08/01 01:09:12;;;;;;;9.15;4.25;;;;;;;;;;5018088;28;20038;-86
2021/08/01 01:11:39;;;;;;;7.95;4.25;;;;;;;;;;5022281;28;20017;-85
2021/08/01 01:14:06;;;;;;;7.35;3.92;;;;;;;;;;5025733;28;20469;-86
2021/08/01 01:16:39;;;;;;;7.30;3.97;;;;;;;;;;5022105;28;20413;-86
2021/08/01 01:19:05;;;;;;;7.03;3.88;;;;;;;;;;5018881;28;20457;-86
2021/08/01 01:21:43;;;;;;;6.97;4.25;;;;;;;;;;5056769;28;20021;-85
2021/08/01 01:24:13;;;;;;;6.90;4.35;;;;;;;;;;5017601;28;20170;-86
2021/08/01 01:26:45;;;;;;;5.38;4.10;;;;;;;;;;5017941;28;20022;-86
2021/08/01 01:29:31;;;;;;;6.63;4.33;;;;;;;;;;5023011;28;20409;-86
2021/08/01 01:32:04;;;;;;;8.35;3.78;;;;;;;;;;5016545;28;20021;-86
2021/08/01 01:34:38;;;;;;;8.48;4.20;;;;;;;;;;5023940;28;20050;-85
2021/08/01 01:37:11;;;;;;;9.48;4.80;;;;;;;;;;5019965;28;20014;-86
2021/08/01 01:39:40;;;;;;;9.32;4.47;;;;;;;;;;5019796;28;20048;-86
2021/08/01 01:42:06;;;;;;;8.70;4.78;;;;;;;;;;5014756;28;20117;-85
2021/08/01 01:44:32;;;;;;;6.88;4.53;;;;;;;;;;5029390;28;20033;-85
2021/08/01 01:46:58;;;;;;;10.50;4.70;;;;;;;;;;5018087;28;20110;-86
2021/08/01 01:49:24;;;;;;;12.10;4.80;;;;;;;;;;5019604;28;20450;-86
2021/08/01 01:51:49;;;;;;;7.50;4.25;;;;;;;;;;5011667;28;20014;-86
2021/08/01 01:54:15;;;;;;;8.07;3.95;;;;;;;;;;5013021;28;20021;-86
2021/08/01 01:56:40;;;;;;;8.02;3.95;;;;;;;;;;5016772;28;20413;-86
2021/08/01 01:59:05;;;;;;;9.60;4.00;;;;;;;;;;5011743;28;20029;-85
2021/08/01 02:01:31;;;;;;;12.32;4.47;;;;;;;;;;5011563;28;20029;-86
2021/08/01 02:03:57;;;;;;;6.93;4.13;;;;;;;;;;5013644;28;20018;-86
2021/08/01 02:06:22;;;;;;;5.70;3.67;;;;;;;;;;5011467;28;20018;-86
2021/08/01 02:08:53;;;;;;;9.63;4.40;;;;;;;;;;5013083;28;20026;-86
2021/08/01 02:11:21;;;;;;;8.52;4.45;;;;;;;;;;5026046;28;20406;-86
2021/08/01 02:13:59;;;;;;;7.40;3.97;;;;;;;;;;5004166;28;20088;-85
2021/08/01 02:16:27;;;;;;;6.50;3.60;;;;;;;;;;5012796;28;20041;-86
2021/08/01 02:18:54;;;;;;;8.38;4.05;;;;;;;;;;5016885;28;20022;-86
2021/08/01 02:21:20;;;;;;;7.95;4.18;;;;;;;;;;5011222;28;20033;-85
2021/08/01 02:23:46;;;;;;;7.20;4.45;;;;;;;;;;5012663;28;20022;-86
2021/08/01 02:26:13;;;;;;;6.43;3.97;;;;;;;;;;5013896;28;20018;-86
2021/08/01 02:28:38;;;;;;;8.35;4.18;;;;;;;;;;5011088;28;20388;-86
2021/08/01 02:31:04;;;;;;;6.05;4.10;;;;;;;;;;5011452;28;20104;-86
2021/08/01 02:33:29;;;;;;;8.68;3.90;;;;;;;;;;5011273;28;20018;-86
2021/08/01 02:35:59;;;;;;;8.63;4.00;;;;;;;;;;5011637;28;20345;-86
2021/08/01 02:38:25;;;;;;;7.32;4.30;;;;;;;;;;5011029;28;20045;-86
2021/08/01 02:40:51;;;;;;;8.10;3.67;;;;;;;;;;5018854;28;20026;-86
2021/08/01 02:43:17;;;;;;;7.00;3.92;;;;;;;;;;5011201;28;20026;-86
2021/08/01 02:45:44;;;;;;;9.05;4.40;;;;;;;;;;5024796;28;20022;-86
2021/08/01 02:48:10;;;;;;;6.35;4.40;;;;;;;;;;5016856;28;20026;-86
2021/08/01 02:50:37;;;;;;;7.90;3.97;;;;;;;;;;5010570;28;20133;-86
2021/08/01 02:53:03;;;;;;;10.73;3.65;;;;;;;;;;5014663;28;20025;-86
2021/08/01 02:55:29;;;;;;;9.10;4.30;;;;;;;;;;5016146;28;20021;-85
2021/08/01 02:57:56;;;;;;;12.73;4.20;;;;;;;;;;5010648;28;20022;-86
2021/08/01 03:00:21;;;;;;;10.35;4.22;;;;;;;;;;5018340;28;20152;-86
2021/08/01 03:02:48;;;;;;;14.63;4.60;;;;;;;;;;5025639;28;20109;-86
2021/08/01 03:05:13;;;;;;;11.25;4.10;;;;;;;;;;5010558;28;20034;-86
2021/08/01 03:07:39;;;;;;;9.35;4.20;;;;;;;;;;5015980;28;20021;-86
2021/08/01 03:10:05;;;;;;;10.13;4.40;;;;;;;;;;5010916;28;20053;-86
2021/08/01 03:12:30;;;;;;;12.07;4.13;;;;;;;;;;5011891;28;20014;-86
2021/08/01 03:14:55;;;;;;;9.25;4.45;;;;;;;;;;5019518;28;20040;-86
2021/08/01 03:17:20;;;;;;;16.27;4.95;;;;;;;;;;5010746;28;20032;-86
2021/08/01 03:19:46;;;;;;;10.13;4.32;;;;;;;;;;5010823;28;20022;-86
2021/08/01 03:22:11;;;;;;;11.95;4.80;;;;;;;;;;5012519;28;20220;-86
2021/08/01 03:24:36;;;;;;;8.43;4.25;;;;;;;;;;5024456;28;20021;-86
2021/08/01 03:27:01;;;;;;;13.13;5.80;;;;;;;;;;5010560;28;20508;-86
2021/08/01 03:29:26;;;;;;;13.88;5.20;;;;;;;;;;5013640;28;20497;-86
2021/08/01 03:31:52;;;;;;;12.98;4.70;;;;;;;;;;5016337;28;20644;-86
2021/08/01 03:34:17;;;;;;;20.42;6.28;;;;;;;;;;5016010;28;20029;-86
2021/08/01 03:36:42;;;;;;;11.40;5.55;;;;;;;;;;5022200;28;20018;-86
2021/08/01 03:39:08;;;;;;;10.82;5.72;;;;;;;;;;5015633;28;20089;-86
2021/08/01 03:41:33;;;;;;;22.60;7.35;;;;;;;;;;5014244;28;20080;-86
2021/08/01 03:43:58;;;;;;;19.50;6.82;;;;;;;;;;5024608;28;20057;-86
2021/08/01 03:46:24;;;;;;;17.08;6.63;;;;;;;;;;5014568;28;20026;-86
2021/08/01 03:48:49;;;;;;;15.07;6.97;;;;;;;;;;5014170;28;20370;-86
2021/08/01 03:51:14;;;;;;;18.90;8.25;;;;;;;;;;5022223;28;20022;-86
2021/08/01 03:53:39;;;;;;;21.80;8.50;;;;;;;;;;5015997;28;20108;-86
2021/08/01 03:56:05;;;;;;;18.25;7.57;;;;;;;;;;5015993;28;20041;-85
2021/08/01 03:58:30;;;;;;;18.52;7.63;;;;;;;;;;5020416;28;20034;-86
2021/08/01 04:00:55;;;;;;;20.58;8.30;;;;;;;;;;5028831;28;20100;-87
2021/08/01 04:03:20;;;;;;;20.15;7.82;;;;;;;;;;5017621;28;20013;-86
2021/08/01 04:05:46;;;;;;;17.85;7.93;;;;;;;;;;5017979;28;20022;-85
2021/08/01 04:08:11;;;;;;;18.40;8.35;;;;;;;;;;5014180;28;20022;-86
2021/08/01 04:10:36;;;;;;;19.00;8.52;;;;;;;;;;5019586;28;20469;-86
2021/08/01 04:13:02;;;;;;;19.67;8.45;;;;;;;;;;5015128;28;20025;-86
2021/08/01 04:15:27;;;;;;;23.27;8.85;;;;;;;;;;5015155;28;20026;-86
2021/08/01 04:17:52;;;;;;;18.67;8.75;;;;;;;;;;5018327;28;20389;-86
2021/08/01 04:20:17;;;;;;;16.95;8.20;;;;;;;;;;5014162;28;20121;-85
2021/08/01 04:22:42;;;;;;;15.70;8.25;;;;;;;;;;5015375;28;20022;-86
2021/08/01 04:25:08;;;;;;;17.80;8.38;;;;;;;;;;5050705;28;20033;-86
2021/08/01 04:27:33;;;;;;;21.38;9.00;;;;;;;;;;5022048;28;20088;-86
2021/08/01 04:29:59;;;;;;;22.90;8.73;;;;;;;;;;5013537;28;20032;-86
2021/08/01 04:32:24;;;;;;;19.98;9.25;;;;;;;;;;5015282;28;20030;-85
2021/08/01 04:34:49;;;;;;;21.60;9.25;;;;;;;;;;5013900;28;20018;-86
2021/08/01 04:37:14;;;;;;;20.33;8.80;;;;;;;;;;5013166;28;20097;-86
2021/08/01 04:39:39;;;;;;;24.98;9.48;;;;;;;;;;5020825;28;20515;-85
2021/08/01 04:42:05;;;;;;;16.38;8.57;;;;;;;;;;5013142;28;20362;-86
2021/08/01 04:44:30;;;;;;;25.20;8.90;;;;;;;;;;5031938;28;20449;-86
2021/08/01 04:46:55;;;;;;;26.85;9.40;;;;;;;;;;5015084;28;20030;-86
2021/08/01 04:49:20;;;;;;;23.40;8.65;;;;;;;;;;5014780;28;20121;-86
2021/08/01 04:51:45;;;;;;;19.55;8.20;;;;;;;;;;5011467;28;20018;-86
2021/08/01 04:54:11;;;;;;;22.83;7.95;;;;;;;;;;5012122;28;20022;-86
2021/08/01 04:56:36;;;;;;;19.95;7.72;;;;;;;;;;5013305;28;20334;-86
2021/08/01 04:59:01;;;;;;;23.58;8.23;;;;;;;;;;5026513;28;20056;-86
2021/08/01 05:01:26;;;;;;;28.08;8.18;;;;;;;;;;5013014;28;20032;-86
2021/08/01 05:03:51;;;;;;;27.63;7.95;;;;;;;;;;5013097;28;20018;-86
2021/08/01 05:06:16;;;;;;;19.67;8.18;;;;;;;;;;5024380;28;20030;-86
2021/08/01 05:08:42;;;;;;;18.88;7.68;;;;;;;;;;5013128;28;20033;-86
2021/08/01 05:11:07;;;;;;;15.95;7.53;;;;;;;;;;5014195;28;20374;-86
2021/08/01 05:13:32;;;;;;;19.50;8.07;;;;;;;;;;5020159;28;20049;-86
2021/08/01 05:15:58;;;;;;;19.38;8.30;;;;;;;;;;5012858;28;20092;-86
2021/08/01 05:18:23;;;;;;;20.83;8.20;;;;;;;;;;5013357;28;20118;-86
2021/08/01 05:20:48;;;;;;;25.10;8.27;;;;;;;;;;5021030;28;20025;-86
2021/08/01 05:23:13;;;;;;;18.25;7.82;;;;;;;;;;5012583;28;20014;-86
2021/08/01 05:25:39;;;;;;;26.35;7.68;;;;;;;;;;5023559;28;20170;-86
2021/08/01 05:28:04;;;;;;;16.55;7.18;;;;;;;;;;5015720;28;20040;-86
2021/08/01 05:30:29;;;;;;;19.00;7.45;;;;;;;;;;5012546;28;20025;-86
2021/08/01 05:32:55;;;;;;;16.23;7.15;;;;;;;;;;5017615;28;20690;-86
2021/08/01 05:35:20;;;;;;;19.58;7.60;;;;;;;;;;5012700;28;20026;-86
2021/08/01 05:37:45;;;;;;;23.20;7.80;;;;;;;;;;5012260;28;20385;-86
2021/08/01 05:40:11;;;;;;;22.88;7.47;;;;;;;;;;5014391;28;20470;-86
2021/08/01 05:42:37;;;;;;;20.45;6.78;;;;;;;;;;5012298;28;20022;-86
2021/08/01 05:45:02;;;;;;;25.00;7.95;;;;;;;;;;5011822;28;20025;-86
2021/08/01 05:47:27;;;;;;;21.88;7.95;;;;;;;;;;5012419;28;20034;-86
2021/08/01 05:49:53;;;;;;;20.60;8.57;;;;;;;;;;5013434;28;20041;-85
2021/08/01 05:52:18;;;;;;;24.92;7.68;;;;;;;;;;5011309;28;20022;-87
2021/08/01 05:54:43;;;;;;;14.10;6.95;;;;;;;;;;5014657;28;20790;-86
2021/08/01 05:57:08;;;;;;;21.20;7.60;;;;;;;;;;5012012;28;20022;-85
2021/08/01 05:59:34;;;;;;;17.77;7.50;;;;;;;;;;5011717;28;20092;-87
2021/08/01 06:01:59;;;;;;;13.80;7.07;;;;;;;;;;5012473;28;20021;-86
2021/08/01 06:04:24;;;;;;;14.80;7.03;;;;;;;;;;5012097;28;20022;-86
2021/08/01 06:06:49;;;;;;;20.92;6.85;;;;;;;;;;5014174;28;20028;-86
2021/08/01 06:09:15;;;;;;;15.48;7.43;;;;;;;;;;5020397;28;20405;-86
2021/08/01 06:11:40;;;;;;;21.00;7.22;;;;;;;;;;5011846;28;20037;-86
2021/08/01 06:14:05;;;;;;;18.17;7.63;;;;;;;;;;5013558;28;20100;-86
2021/08/01 06:16:30;;;;;;;16.65;7.75;;;;;;;;;;5018732;28;20065;-86
2021/08/01 06:18:56;;;;;;;20.20;7.88;;;;;;;;;;5019181;28;20026;-86
2021/08/01 06:21:21;;;;;;;14.52;7.35;;;;;;;;;;5011431;28;20021;-86
2021/08/01 06:23:48;;;;;;;17.63;6.70;;;;;;;;;;5019147;28;20489;-86
2021/08/01 06:26:14;;;;;;;19.40;8.15;;;;;;;;;;5011613;28;20021;-86
2021/08/01 06:28:39;;;;;;;18.65;7.80;;;;;;;;;;5011599;28;20032;-86
2021/08/01 06:31:05;;;;;;;18.73;8.73;;;;;;;;;;5018680;28;20022;-86
2021/08/01 06:33:31;;;;;;;19.25;8.43;;;;;;;;;;5049190;28;20030;-86
2021/08/01 06:35:56;;;;;;;18.45;8.77;;;;;;;;;;5044163;28;20013;-86
2021/08/01 06:38:22;;;;;;;20.08;8.40;;;;;;;;;;5019665;28;20101;-87
2021/08/01 06:40:48;;;;;;;18.95;8.18;;;;;;;;;;5020895;28;20052;-87
2021/08/01 06:43:13;;;;;;;25.73;8.25;;;;;;;;;;5015747;28;20504;-87
2021/08/01 06:45:38;;;;;;;23.15;8.65;;;;;;;;;;5019949;28;20018;-86
2021/08/01 06:48:06;;;;;;;20.38;8.70;;;;;;;;;;5011385;28;20506;-87
2021/08/01 06:50:31;;;;;;;22.50;8.15;;;;;;;;;;5011009;28;20124;-87
2021/08/01 06:52:56;;;;;;;25.25;8.10;;;;;;;;;;5051724;28;20525;-87
2021/08/01 06:55:21;;;;;;;23.92;9.73;;;;;;;;;;5011661;28;20481;-87
2021/08/01 06:57:46;;;;;;;21.30;8.75;;;;;;;;;;5011541;28;20104;-87
2021/08/01 07:00:12;;;;;;;25.20;9.10;;;;;;;;;;5021017;28;20045;-87
2021/08/01 07:02:37;;;;;;;24.60;9.18;;;;;;;;;;5022896;28;20025;-87
2021/08/01 07:05:03;;;;;;;21.40;7.00;;;;;;;;;;5010943;28;20433;-87
2021/08/01 07:07:28;;;;;;;19.20;6.72;;;;;;;;;;5019063;28;20559;-88
2021/08/01 07:09:53;;;;;;;23.27;8.40;;;;;;;;;;5010849;28;20044;-87
2021/08/01 07:12:18;;;;;;;19.10;8.05;;;;;;;;;;5015238;28;20021;-87
2021/08/01 07:14:46;;;;;;;18.75;8.00;;;;;;;;;;5020599;28;20674;-88
2021/08/01 07:17:11;;;;;;;21.77;8.18;;;;;;;;;;5018656;28;20426;-87
2021/08/01 07:19:36;;;;;;;22.17;7.18;;;;;;;;;;5013369;28;20041;-88
2021/08/01 07:22:01;;;;;;;22.58;7.88;;;;;;;;;;5018780;28;20106;-88
2021/08/01 07:24:26;;;;;;;26.77;8.18;;;;;;;;;;5019815;28;20052;-87
2021/08/01 07:26:53;;;;;;;24.08;8.77;;;;;;;;;;5010981;28;20032;-87
2021/08/01 07:29:19;;;;;;;20.75;9.35;;;;;;;;;;5016667;28;20023;-88
2021/08/01 07:31:44;;;;;;;18.80;7.18;;;;;;;;;;5014114;28;20017;-87
2021/08/01 07:34:12;;;;;;;22.13;8.20;;;;;;;;;;5013148;28;20037;-87
2021/08/01 07:36:37;;;;;;;25.52;8.68;;;;;;;;;;5023254;28;20025;-87
2021/08/01 07:39:03;;;;;;;23.45;8.98;;;;;;;;;;5009006;28;20033;-87
2021/08/01 07:41:28;;;;;;;22.20;8.80;;;;;;;;;;5009676;28;20022;-87
2021/08/01 07:43:53;;;;;;;25.08;9.18;;;;;;;;;;5009974;28;20112;-88
2021/08/01 07:46:19;;;;;;;18.58;7.55;;;;;;;;;;5010269;28;20059;-88
2021/08/01 07:48:44;;;;;;;25.48;9.30;;;;;;;;;;5019387;28;20026;-88
2021/08/01 07:51:10;;;;;;;25.23;9.38;;;;;;;;;;5010238;28;20022;-87
2021/08/01 07:53:35;;;;;;;28.70;10.05;;;;;;;;;;5011763;28;20072;-87
2021/08/01 07:56:00;;;;;;;21.48;10.15;;;;;;;;;;5020918;28;20099;-87
2021/08/01 07:58:25;;;;;;;23.70;8.27;;;;;;;;;;5011870;28;20013;-88
2021/08/01 08:00:50;;;;;;;23.58;10.13;;;;;;;;;;5013879;28;20483;-88
2021/08/01 08:03:16;;;;;;;25.05;10.68;;;;;;;;;;5019219;28;20022;-87
2021/08/01 08:05:41;;;;;;;26.10;11.18;;;;;;;;;;5015781;28;20018;-87
2021/08/01 08:08:06;;;;;;;26.33;12.05;;;;;;;;;;5011821;28;20028;-87
2021/08/01 08:10:31;;;;;;;29.08;11.38;;;;;;;;;;5017569;28;20018;-87
2021/08/01 08:12:57;;;;;;;25.23;9.30;;;;;;;;;;5012113;28;20352;-87
2021/08/01 08:15:22;;;;;;;25.77;9.55;;;;;;;;;;5012685;28;20101;-88
2021/08/01 08:17:47;;;;;;;30.20;10.50;;;;;;;;;;5013539;28;20014;-88
2021/08/01 08:20:12;;;;;;;24.45;8.82;;;;;;;;;;5013965;28;20109;-87
2021/08/01 08:22:38;;;;;;;22.70;9.55;;;;;;;;;;5013971;28;20029;-87
2021/08/01 08:25:04;;;;;;;21.33;8.38;;;;;;;;;;5013853;28;20025;-88
2021/08/01 08:27:29;;;;;;;22.77;8.90;;;;;;;;;;5023719;28;20026;-87
2021/08/01 08:29:54;;;;;;;23.50;10.25;;;;;;;;;;5015415;28;20162;-88
2021/08/01 08:32:19;;;;;;;25.98;10.38;;;;;;;;;;5046376;28;20460;-87
2021/08/01 08:34:45;;;;;;;21.02;8.15;;;;;;;;;;5021123;28;20533;-88
2021/08/01 08:37:10;;;;;;;27.50;11.25;;;;;;;;;;5013162;28;20403;-87
2021/08/01 08:39:35;;;;;;;25.05;9.40;;;;;;;;;;5013990;28;20021;-87
2021/08/01 08:42:02;;;;;;;25.17;9.75;;;;;;;;;;5021421;28;20034;-88
2021/08/01 08:44:27;;;;;;;23.10;10.18;;;;;;;;;;5013491;28;20026;-88
2021/08/01 08:46:53;;;;;;;18.35;8.32;;;;;;;;;;5013186;28;20168;-88
2021/08/01 08:49:19;;;;;;;17.52;9.82;;;;;;;;;;5019833;28;20026;-88
2021/08/01 08:51:45;;;;;;;26.52;9.90;;;;;;;;;;5017385;28;20074;-87
2021/08/01 08:54:14;;;;;;;23.23;9.82;;;;;;;;;;5014582;28;20026;-87
2021/08/01 08:56:40;;;;;;;21.98;10.18;;;;;;;;;;5020407;28;20040;-88
2021/08/01 08:59:06;;;;;;;26.48;9.65;;;;;;;;;;5013218;28;20460;-87
2021/08/01 09:01:31;;;;;;;21.73;9.52;;;;;;;;;;5015711;28;20032;-87
2021/08/01 09:03:56;;;;;;;22.88;10.38;;;;;;;;;;5013057;28;20307;-86
2021/08/01 09:06:22;;;;;;;21.00;11.10;;;;;;;;;;5013318;28;20030;-87
2021/08/01 09:08:47;;;;;;;21.13;9.60;;;;;;;;;;5024259;28;20026;-87
2021/08/01 09:11:12;;;;;;;21.27;10.80;;;;;;;;;;5015066;28;20030;-87
2021/08/01 09:13:48;;;;;;;23.75;11.10;;;;;;;;;;5054320;28;20033;-87
2021/08/01 09:16:14;;;;;;;25.15;11.10;;;;;;;;;;5016003;28;20129;-87
2021/08/01 09:18:39;;;;;;;21.15;11.18;;;;;;;;;;5014347;28;20475;-87
2021/08/01 09:21:04;;;;;;;27.65;10.85;;;;;;;;;;5013115;28;20022;-88
2021/08/01 09:23:30;;;;;;;21.85;9.85;;;;;;;;;;5013033;28;20029;-88
2021/08/01 09:25:57;;;;;;;18.58;9.68;;;;;;;;;;5012008;28;20021;-87
2021/08/01 09:28:25;;;;;;;24.42;9.43;;;;;;;;;;5013711;28;20032;-87
2021/08/01 09:30:56;;;;;;;19.35;9.48;;;;;;;;;;5015780;28;20021;-88
2021/08/01 09:33:31;;;;;;;28.15;11.35;;;;;;;;;;5014430;28;20026;-87
2021/08/01 09:36:19;;;;;;;22.08;10.73;;;;;;;;;;5028835;28;20376;-87
2021/08/01 09:38:47;;;;;;;19.63;10.18;;;;;;;;;;5031465;28;20026;-87
2021/08/01 09:41:13;;;;;;;20.15;11.43;;;;;;;;;;5019103;28;20025;-88
2021/08/01 09:43:52;;;;;;;19.95;11.00;;;;;;;;;;5023349;28;20014;-88
2021/08/01 09:46:18;;;;;;;22.10;12.73;;;;;;;;;;5012076;28;20377;-87
2021/08/01 09:48:43;;;;;;;18.83;12.10;;;;;;;;;;5012621;28;20048;-87
2021/08/01 09:51:10;;;;;;;22.40;12.02;;;;;;;;;;5017786;28;20018;-88
2021/08/01 09:53:36;;;;;;;24.88;13.15;;;;;;;;;;5011876;28;20026;-86
2021/08/01 09:56:16;;;;;;;25.20;13.90;;;;;;;;;;5015548;28;20362;-88
2021/08/01 09:58:42;;;;;;;21.27;11.38;;;;;;;;;;5020428;28;20115;-88
2021/08/01 10:01:07;;;;;;;23.77;12.32;;;;;;;;;;5013096;28;20044;-88
2021/08/01 10:03:36;;;;;;;21.45;13.07;;;;;;;;;;5018783;28;20029;-87
2021/08/01 10:06:21;;;;;;;21.92;12.52;;;;;;;;;;5014130;28;20075;-88
2021/08/01 10:08:47;;;;;;;21.90;12.25;;;;;;;;;;5011985;28;20018;-87
2021/08/01 10:11:17;;;;;;;29.80;13.65;;;;;;;;;;5021127;28;20029;-87
2021/08/01 10:13:43;;;;;;;20.63;11.93;;;;;;;;;;5044740;28;20441;-87
2021/08/01 10:16:09;;;;;;;19.67;11.93;;;;;;;;;;5048007;28;20350;-88
2021/08/01 10:18:35;;;;;;;19.05;11.55;;;;;;;;;;5017764;28;20029;-87
2021/08/01 10:21:01;;;;;;;20.27;10.15;;;;;;;;;;5013001;28;20387;-88
2021/08/01 10:23:27;;;;;;;17.13;9.93;;;;;;;;;;5044460;28;20022;-88
2021/08/01 10:25:53;;;;;;;20.00;9.75;;;;;;;;;;5049182;28;20457;-88
2021/08/01 10:28:29;;;;;;;19.88;10.07;;;;;;;;;;5011495;28;20024;-88
2021/08/01 10:30:57;;;;;;;17.85;9.90;;;;;;;;;;5012470;28;20033;-88
2021/08/01 10:33:23;;;;;;;14.88;8.68;;;;;;;;;;5012846;28;20045;-87
2021/08/01 10:35:56;;;;;;;15.30;8.15;;;;;;;;;;5011762;28;20517;-87
2021/08/01 10:38:23;;;;;;;14.75;8.10;;;;;;;;;;5009184;28;20473;-88
2021/08/01 10:40:52;;;;;;;16.63;8.45;;;;;;;;;;5017770;28;20114;-87
2021/08/01 10:43:19;;;;;;;12.90;7.28;;;;;;;;;;5011508;28;20108;-88
2021/08/01 10:45:45;;;;;;;13.77;7.30;;;;;;;;;;5017626;28;20103;-87
2021/08/01 10:48:13;;;;;;;13.73;7.10;;;;;;;;;;5012076;28;20481;-87
2021/08/01 10:50:40;;;;;;;10.13;7.30;;;;;;;;;;5011451;28;20026;-87
2021/08/01 10:53:18;;;;;;;12.80;8.18;;;;;;;;;;5012914;28;20052;-87
2021/08/01 10:55:43;;;;;;;16.05;10.02;;;;;;;;;;5010528;28;20060;-87
2021/08/01 10:58:10;;;;;;;17.88;9.73;;;;;;;;;;5013408;28;20045;-87
2021/08/01 11:00:54;;;;;;;17.13;9.75;;;;;;;;;;5044303;28;20036;-87
2021/08/01 11:03:19;;;;;;;21.10;9.32;;;;;;;;;;5045758;28;20038;-87
2021/08/01 11:05:44;;;;;;;16.00;9.57;;;;;;;;;;5011217;28;20041;-88
2021/08/01 11:08:09;;;;;;;21.10;9.45;;;;;;;;;;5011243;28;20026;-88
2021/08/01 11:10:35;;;;;;;17.35;10.02;;;;;;;;;;5018136;28;20022;-88
2021/08/01 11:13:20;;;;;;;17.25;8.82;;;;;;;;;;5010316;28;20108;-88
2021/08/01 11:15:46;;;;;;;5.75;3.90;;;;;;;;;;5048888;28;20052;-88
2021/08/01 11:18:11;;;;;;;8.25;4.32;;;;;;;;;;5022920;28;20018;-88
2021/08/01 11:20:37;;;;;;;8.93;3.55;;;;;;;;;;5012393;28;20022;-88
2021/08/01 11:23:05;;;;;;;6.68;3.20;;;;;;;;;;5022812;28;20112;-88
2021/08/01 11:25:33;;;;;;;5.15;3.72;;;;;;;;;;5010910;28;20465;-88
2021/08/01 11:28:09;;;;;;;5.13;3.08;;;;;;;;;;5015737;28;20026;-87
2021/08/01 11:30:49;;;;;;;6.53;3.22;;;;;;;;;;5049759;28;20457;-86
2021/08/01 11:33:29;;;;;;;5.20;3.10;;;;;;;;;;5041290;28;20056;-88
2021/08/01 11:36:13;;;;;;;5.45;2.75;;;;;;;;;;5011920;28;20022;-88
2021/08/01 11:38:48;;;;;;;8.75;4.30;;;;;;;;;;5020880;28;20022;-89
2021/08/01 11:41:41;;;;;;;9.30;4.22;;;;;;;;;;5012402;28;20022;-89
2021/08/01 11:44:12;;;;;;;9.00;4.32;;;;;;;;;;5022114;28;20014;-89
2021/08/01 11:46:43;;;;;;;7.57;3.65;;;;;;;;;;5017488;28;20025;-89
2021/08/01 11:49:09;;;;;;;7.67;4.13;;;;;;;;;;5052594;28;20095;-89
2021/08/01 11:51:41;;;;;;;3.35;2.53;;;;;;;;;;5054414;28;20108;-89
2021/08/01 11:54:07;;;;;;;6.50;3.58;;;;;;;;;;5027087;28;20014;-88
2021/08/01 11:56:32;;;;;;;4.55;2.90;;;;;;;;;;5015952;28;20045;-88
2021/08/01 11:58:59;;;;;;;6.00;3.10;;;;;;;;;;5017586;28;20107;-89
2021/08/01 12:01:27;;;;;;;6.30;3.72;;;;;;;;;;5015308;28;20029;-89
2021/08/01 12:03:53;;;;;;;5.28;3.28;;;;;;;;;;5014354;28;20018;-89
2021/08/01 12:06:34;;;;;;;4.65;2.67;;;;;;;;;;5027229;28;20477;-89
2021/08/01 12:08:59;;;;;;;5.00;2.60;;;;;;;;;;5014623;28;20026;-89
2021/08/01 12:11:24;;;;;;;3.58;2.60;;;;;;;;;;5018852;28;20026;-89
2021/08/01 12:14:03;;;;;;;3.75;2.60;;;;;;;;;;5022949;28;20018;-89
2021/08/01 12:16:28;;;;;;;3.10;2.63;;;;;;;;;;5014257;28;20046;-89
2021/08/01 12:18:53;;;;;;;4.55;2.65;;;;;;;;;;5016321;28;20056;-89
2021/08/01 12:21:32;;;;;;;3.88;2.80;;;;;;;;;;5027590;28;20446;-89
2021/08/01 12:23:57;;;;;;;11.40;2.70;;;;;;;;;;5026545;28;20026;-89
2021/08/01 12:26:39;;;;;;;8.52;2.67;;;;;;;;;;5014636;28;20026;-90
2021/08/01 12:29:04;;;;;;;3.92;2.45;;;;;;;;;;5049802;28;20033;-89
2021/08/01 12:31:30;;;;;;;9.10;2.60;;;;;;;;;;5024852;28;20026;-89
2021/08/01 12:33:56;;;;;;;10.15;2.67;;;;;;;;;;5015434;28;20026;-89
2021/08/01 12:36:25;;;;;;;7.60;2.50;;;;;;;;;;5015682;28;20038;-88
2021/08/01 12:38:50;;;;;;;15.77;3.00;;;;;;;;;;5039997;28;20033;-89
2021/08/01 12:41:17;;;;;;;5.45;2.55;;;;;;;;;;5015755;28;20091;-89
2021/08/01 12:43:42;;;;;;;14.45;4.07;;;;;;;;;;5020708;28;20021;-88
2021/08/01 12:46:14;;;;;;;19.05;3.45;;;;;;;;;;5018602;28;20080;-89
2021/08/01 12:48:40;;;;;;;7.55;2.78;;;;;;;;;;5015003;28;20084;-89
2021/08/01 12:51:05;;;;;;;25.20;5.45;;;;;;;;;;5014940;28;20018;-88
2021/08/01 12:53:30;;;;;;;5.20;2.80;;;;;;;;;;5014095;28;20030;-89
2021/08/01 12:56:01;;;;;;;15.93;3.33;;;;;;;;;;5015420;28;20026;-88
2021/08/01 12:58:30;;;;;;;8.75;2.95;;;;;;;;;;5020900;28;20101;-88
2021/08/01 13:00:57;;;;;;;5.32;3.28;;;;;;;;;;5012199;28;20029;-89
2021/08/01 13:03:32;;;;;;;7.72;4.03;;;;;;;;;;5013597;28;20092;-88
2021/08/01 13:05:57;;;;;;;5.95;3.95;;;;;;;;;;5013304;28;20029;-88
2021/08/01 13:08:36;;;;;;;6.72;4.72;;;;;;;;;;5056387;28;20108;-88
2021/08/01 13:11:01;;;;;;;9.23;5.22;;;;;;;;;;5012898;28;20038;-88
2021/08/01 13:13:26;;;;;;;7.80;4.70;;;;;;;;;;5023435;28;20026;-89
2021/08/01 13:15:56;;;;;;;10.88;4.65;;;;;;;;;;5022832;28;20037;-89
2021/08/01 13:18:27;;;;;;;6.72;4.25;;;;;;;;;;5019747;28;20084;-88
2021/08/01 13:20:52;;;;;;;8.82;3.95;;;;;;;;;;5015775;28;20076;-88
2021/08/01 13:23:35;;;;;;;5.25;3.58;;;;;;;;;;5020621;28;20025;-90
2021/08/01 13:26:14;;;;;;;4.40;3.47;;;;;;;;;;5016159;28;20022;-88
2021/08/01 13:28:51;;;;;;;4.95;3.38;;;;;;;;;;5042451;28;20029;-88
2021/08/01 13:31:17;;;;;;;7.63;4.47;;;;;;;;;;5053772;28;20018;-88
2021/08/01 13:33:53;;;;;;;9.18;4.78;;;;;;;;;;5013494;28;20028;-88
2021/08/01 13:36:18;;;;;;;8.02;4.50;;;;;;;;;;5040588;28;20487;-88
2021/08/01 13:38:43;;;;;;;6.65;4.00;;;;;;;;;;5020980;28;20018;-88
2021/08/01 13:41:19;;;;;;;8.07;4.90;;;;;;;;;;5025095;28;20052;-88
2021/08/01 13:44:04;;;;;;;6.95;4.45;;;;;;;;;;5014648;28;20014;-89
2021/08/01 13:46:29;;;;;;;6.90;4.82;;;;;;;;;;5017635;28;20551;-88
2021/08/01 13:48:54;;;;;;;7.70;4.97;;;;;;;;;;5014452;28;20018;-88
2021/08/01 13:51:19;;;;;;;10.02;5.57;;;;;;;;;;5012073;28;20030;-88
2021/08/01 13:53:45;;;;;;;8.48;5.43;;;;;;;;;;5045513;28;20050;-87
2021/08/01 13:56:10;;;;;;;10.50;6.30;;;;;;;;;;5013410;28;20249;-89
2021/08/01 13:58:35;;;;;;;8.77;4.60;;;;;;;;;;5012154;28;20085;-88
2021/08/01 14:01:00;;;;;;;9.75;5.65;;;;;;;;;;5012409;28;20419;-89
2021/08/01 14:03:26;;;;;;;11.30;6.22;;;;;;;;;;5013711;28;20029;-88
2021/08/01 14:05:52;;;;;;;10.52;6.43;;;;;;;;;;5012634;28;20053;-88
2021/08/01 14:08:17;;;;;;;6.38;4.57;;;;;;;;;;5011753;28;20502;-88
2021/08/01 14:10:42;;;;;;;9.68;5.60;;;;;;;;;;5012257;28;20113;-88
2021/08/01 14:13:07;;;;;;;10.70;6.22;;;;;;;;;;5025575;28;20021;-88
2021/08/01 14:15:32;;;;;;;10.77;6.78;;;;;;;;;;5018517;28;20026;-88
2021/08/01 14:17:57;;;;;;;9.52;5.78;;;;;;;;;;5016085;28;20025;-88
2021/08/01 14:20:23;;;;;;;9.27;6.55;;;;;;;;;;5026048;28;20025;-89
2021/08/01 14:22:48;;;;;;;11.52;7.18;;;;;;;;;;5016606;28;20036;-90
2021/08/01 14:25:13;;;;;;;8.88;6.10;;;;;;;;;;5013721;28;20034;-89
2021/08/01 14:27:39;;;;;;;12.05;7.40;;;;;;;;;;5018227;28;20477;-89
2021/08/01 14:30:06;;;;;;;9.82;6.38;;;;;;;;;;5023677;28;20040;-89
2021/08/01 14:32:31;;;;;;;9.45;3.83;;;;;;;;;;5012390;28;20439;-88
2021/08/01 14:34:58;;;;;;;3.58;2.53;;;;;;;;;;5016402;28;20100;-89